Time;durP1;ratioP1;P1;durP2;ratioP2;P2;SDS_P1;SDS_P2;PMS_P1;PMS_P2;Temp;Humidity;BMP_temperature;BMP_pressure;BME280_temperature;BME280_humidity;BME280_pressure;Samples;Min_cycle;Max_cycle;Signal;HPM_P1;HPM_P2
2023/07/07 04:06:37;;;;;;;;;15.50;15.00;;;;;;;;5762269;46;10000992;-57
2023/07/07 04:12:42;;;;;;;;;17.50;17.00;;;;;;;;6492141;39;8873;-56
2023/07/07 11:42:32;;;;;;;;;17.50;15.00;;;;;;;;6042171;39;10000009;-60
2023/07/07 11:49:19;;;;;;;;;14.50;14.50;;;;;;;;6490928;46;9162;-60
2023/07/07 11:55:22;;;;;;;;;16.50;16.25;;;;;;;;6492594;39;8894;-59
2023/07/07 12:01:40;;;;;;;;;15.25;14.25;;;;;;;;6492319;39;8917;-59
2023/07/07 12:07:51;;;;;;;;;16.00;16.00;;;;;;;;6492287;39;8858;-57
2023/07/07 12:14:37;;;;;;;;;19.75;19.75;;;;;;;;6492553;39;8951;-59
2023/07/07 12:20:54;;;;;;;;;14.25;14.00;;;;;;;;6491102;46;8928;-56
2023/07/07 12:27:12;;;;;;;;;18.00;18.00;;;;;;;;6491675;39;8987;-57
2023/07/07 12:33:17;;;;;;;;;15.00;14.75;;;;;;;;6490577;39;8870;-56
2023/07/07 12:39:20;;;;;;;;;16.50;15.25;;;;;;;;6490655;39;8997;-58
2023/07/07 12:45:31;;;;;;;;;15.50;15.50;;;;;;;;6492196;39;8961;-57
2023/07/07 12:51:39;;;;;;;;;17.00;14.50;;;;;;;;6490127;39;9532;-56
2023/07/07 12:58:11;;;;;;;;;15.25;14.25;;;;;;;;6493258;31;9537;-53
2023/07/07 13:04:16;;;;;;;;;15.00;15.00;;;;;;;;6491403;39;8853;-54
2023/07/07 13:10:33;;;;;;;;;18.75;17.75;;;;;;;;6491343;46;8901;-55
2023/07/07 13:16:37;;;;;;;;;22.50;20.25;;;;;;;;6490334;39;9501;-57
2023/07/07 13:22:49;;;;;;;;;16.75;16.25;;;;;;;;6486150;39;8874;-56
2023/07/07 13:29:09;;;;;;;;;22.00;21.00;;;;;;;;6488741;31;8936;-59
2023/07/07 13:35:13;;;;;;;;;19.50;18.00;;;;;;;;6489325;39;9066;-55
2023/07/07 13:41:20;;;;;;;;;24.50;22.75;;;;;;;;6492099;31;8880;-56
2023/07/07 13:47:24;;;;;;;;;19.00;19.00;;;;;;;;6490551;39;8972;-58
2023/07/07 13:53:28;;;;;;;;;19.50;19.50;;;;;;;;6491197;39;8869;-57
2023/07/07 13:59:34;;;;;;;;;20.50;17.75;;;;;;;;6490413;39;8970;-59
2023/07/07 14:05:39;;;;;;;;;19.00;18.00;;;;;;;;6490576;39;8888;-58
2023/07/07 14:11:43;;;;;;;;;20.25;19.25;;;;;;;;6491207;46;8912;-58
2023/07/07 14:17:45;;;;;;;;;17.50;16.00;;;;;;;;6491233;39;8880;-55
2023/07/07 14:23:52;;;;;;;;;19.75;18.00;;;;;;;;6491315;46;8887;-57
2023/07/07 14:29:56;;;;;;;;;19.25;19.25;;;;;;;;6491220;46;8947;-57
2023/07/07 14:36:01;;;;;;;;;20.00;18.25;;;;;;;;6491945;39;8978;-56
2023/07/07 14:42:18;;;;;;;;;21.50;17.75;;;;;;;;6526978;36;8892;-58
2023/07/07 14:48:23;;;;;;;;;17.00;14.00;;;;;;;;6310999;31;10000499;-56
2023/07/07 14:54:27;;;;;;;;;19.00;17.00;;;;;;;;6488601;39;8904;-55
2023/07/07 15:00:41;;;;;;;;;21.50;17.25;;;;;;;;6490613;39;9678;-56
2023/07/07 15:06:51;;;;;;;;;21.75;21.00;;;;;;;;6491132;39;8889;-58
2023/07/07 15:12:53;;;;;;;;;19.00;19.00;;;;;;;;6508937;36;8859;-57
2023/07/07 15:18:55;;;;;;;;;19.25;19.25;;;;;;;;6490149;39;8904;-57
2023/07/07 15:24:58;;;;;;;;;17.50;17.50;;;;;;;;6490203;39;8885;-56
2023/07/07 15:31:00;;;;;;;;;17.50;17.50;;;;;;;;6490694;39;8972;-58
2023/07/07 15:37:11;;;;;;;;;16.75;16.25;;;;;;;;6489622;31;8881;-55
2023/07/07 15:43:14;;;;;;;;;18.25;17.50;;;;;;;;6490136;39;8909;-53
2023/07/07 15:49:18;;;;;;;;;18.50;17.00;;;;;;;;6489543;47;8942;-57
2023/07/07 15:55:21;;;;;;;;;20.75;19.25;;;;;;;;6492402;39;8889;-57
2023/07/07 16:01:25;;;;;;;;;23.25;20.00;;;;;;;;6493349;46;8993;-58
2023/07/07 16:07:27;;;;;;;;;17.25;17.00;;;;;;;;6492768;39;8845;-57
2023/07/07 16:13:29;;;;;;;;;20.50;20.50;;;;;;;;6490731;39;8866;-55
2023/07/07 16:19:32;;;;;;;;;22.50;22.50;;;;;;;;6493370;39;8880;-57
2023/07/07 16:25:34;;;;;;;;;19.33;16.67;;;;;;;;6491717;39;9537;-57
2023/07/07 16:31:38;;;;;;;;;20.50;18.75;;;;;;;;6492522;39;8825;-56
2023/07/07 16:37:43;;;;;;;;;17.00;17.00;;;;;;;;6492127;31;8854;-55
2023/07/07 16:43:49;;;;;;;;;17.50;14.50;;;;;;;;6492697;39;8893;-55
2023/07/07 16:49:51;;;;;;;;;16.50;14.25;;;;;;;;6492465;39;8871;-55
2023/07/07 16:55:54;;;;;;;;;16.25;16.25;;;;;;;;6491198;46;8896;-55
2023/07/07 17:01:57;;;;;;;;;17.50;17.50;;;;;;;;6493229;39;8893;-56
2023/07/07 17:08:00;;;;;;;;;21.75;20.50;;;;;;;;6492044;39;8957;-56
2023/07/07 17:14:02;;;;;;;;;16.50;16.50;;;;;;;;6491906;39;9431;-56
2023/07/07 17:20:32;;;;;;;;;15.00;13.00;;;;;;;;6493251;39;8873;-56
2023/07/07 17:26:37;;;;;;;;;12.00;10.25;;;;;;;;6492332;39;8878;-56
2023/07/07 17:32:39;;;;;;;;;13.75;12.00;;;;;;;;6492346;39;8901;-55
2023/07/07 17:38:44;;;;;;;;;14.50;14.25;;;;;;;;6490999;39;9613;-55
2023/07/07 17:44:46;;;;;;;;;23.25;22.50;;;;;;;;6492196;39;8844;-55
2023/07/07 17:50:50;;;;;;;;;15.00;15.00;;;;;;;;6491610;39;8941;-56
2023/07/07 17:56:53;;;;;;;;;14.00;13.75;;;;;;;;6491837;46;8938;-55
2023/07/07 18:02:56;;;;;;;;;18.25;16.50;;;;;;;;6491442;46;8870;-53
2023/07/07 18:08:58;;;;;;;;;15.00;14.50;;;;;;;;6491538;39;9505;-56
2023/07/07 18:15:02;;;;;;;;;13.50;13.50;;;;;;;;6492060;39;9057;-57
2023/07/07 18:21:12;;;;;;;;;14.00;14.00;;;;;;;;6492245;39;9564;-55
2023/07/07 18:27:35;;;;;;;;;14.00;14.00;;;;;;;;6491825;46;8846;-55
2023/07/07 18:33:39;;;;;;;;;16.50;15.25;;;;;;;;6491456;46;8913;-56
2023/07/07 18:39:43;;;;;;;;;12.75;12.75;;;;;;;;6491545;31;8886;-57
2023/07/07 18:45:46;;;;;;;;;19.25;15.75;;;;;;;;6491382;39;8968;-54
2023/07/07 18:51:48;;;;;;;;;17.00;17.00;;;;;;;;6491653;46;9006;-54
2023/07/07 18:57:52;;;;;;;;;19.75;18.25;;;;;;;;6491312;39;8869;-57
2023/07/07 19:03:54;;;;;;;;;13.25;13.25;;;;;;;;6491540;31;8878;-55
2023/07/07 19:09:57;;;;;;;;;10.50;10.50;;;;;;;;6491437;39;9116;-52
2023/07/07 19:16:00;;;;;;;;;14.50;13.75;;;;;;;;6491468;39;8910;-56
2023/07/07 19:22:12;;;;;;;;;11.25;11.25;;;;;;;;6490760;39;8935;-54
2023/07/07 19:28:29;;;;;;;;;15.00;14.00;;;;;;;;6491364;39;8885;-54
2023/07/07 19:34:31;;;;;;;;;12.50;12.50;;;;;;;;6492327;46;8869;-55
2023/07/07 19:40:37;;;;;;;;;16.75;16.00;;;;;;;;6491712;39;8930;-55
2023/07/07 19:46:41;;;;;;;;;13.50;12.75;;;;;;;;6494251;31;9445;-55
2023/07/07 19:52:44;;;;;;;;;12.75;12.75;;;;;;;;6492606;39;8953;-55
2023/07/07 19:58:50;;;;;;;;;13.75;13.75;;;;;;;;6492673;39;9524;-53
2023/07/07 20:04:54;;;;;;;;;12.25;12.25;;;;;;;;6493275;31;8888;-57
2023/07/07 20:10:57;;;;;;;;;13.75;13.50;;;;;;;;6492789;39;9063;-55
2023/07/07 20:17:01;;;;;;;;;11.50;11.25;;;;;;;;6493430;39;8793;-55
2023/07/07 20:23:11;;;;;;;;;12.50;12.00;;;;;;;;6492290;39;8886;-57
2023/07/07 20:29:15;;;;;;;;;13.25;13.25;;;;;;;;6493344;39;9592;-56
2023/07/07 20:35:20;;;;;;;;;11.00;11.00;;;;;;;;6491513;31;8942;-54
2023/07/07 20:41:22;;;;;;;;;10.00;9.00;;;;;;;;6413263;36;5001507;-55
2023/07/07 20:47:25;;;;;;;;;11.00;11.00;;;;;;;;6493251;36;12188;-57
2023/07/07 20:53:27;;;;;;;;;18.00;17.50;;;;;;;;6492396;39;8986;-56
2023/07/07 20:59:34;;;;;;;;;13.50;13.50;;;;;;;;6491325;46;8860;-56
2023/07/07 21:05:38;;;;;;;;;13.00;13.00;;;;;;;;6492135;39;8914;-57
2023/07/07 21:11:42;;;;;;;;;15.75;15.00;;;;;;;;6492516;39;8936;-54
2023/07/07 21:17:44;;;;;;;;;14.25;14.25;;;;;;;;6492586;46;8840;-57
2023/07/07 21:23:49;;;;;;;;;11.50;10.00;;;;;;;;6492254;31;9525;-56
2023/07/07 21:29:52;;;;;;;;;12.00;12.00;;;;;;;;6492092;46;8843;-54
2023/07/07 21:35:55;;;;;;;;;14.00;11.75;;;;;;;;6491531;31;8869;-56
2023/07/07 21:42:01;;;;;;;;;11.50;9.75;;;;;;;;6490703;39;8924;-51
2023/07/07 21:48:17;;;;;;;;;12.00;12.00;;;;;;;;6493403;31;9482;-54
2023/07/07 21:54:20;;;;;;;;;12.75;12.00;;;;;;;;6492650;39;8974;-54
2023/07/07 22:00:29;;;;;;;;;11.25;10.25;;;;;;;;6492427;31;8853;-52
2023/07/07 22:06:31;;;;;;;;;11.50;10.75;;;;;;;;6491330;31;8864;-55
2023/07/07 22:12:34;;;;;;;;;13.25;11.25;;;;;;;;6490882;46;8960;-56
2023/07/07 22:18:36;;;;;;;;;13.00;12.50;;;;;;;;6492685;39;8836;-56
2023/07/07 22:24:55;;;;;;;;;12.25;12.25;;;;;;;;6490928;46;8857;-54
2023/07/07 22:31:02;;;;;;;;;14.00;13.00;;;;;;;;6492270;39;8820;-54
2023/07/07 22:37:12;;;;;;;;;14.75;13.00;;;;;;;;6491042;39;8916;-52
2023/07/07 22:43:15;;;;;;;;;15.00;14.00;;;;;;;;6492157;39;9478;-54
2023/07/07 22:49:18;;;;;;;;;13.00;13.00;;;;;;;;6491541;39;8877;-56
2023/07/07 22:55:25;;;;;;;;;13.50;13.50;;;;;;;;6491810;39;9005;-54
2023/07/07 23:01:29;;;;;;;;;12.50;12.25;;;;;;;;6490755;31;8907;-57
2023/07/07 23:07:31;;;;;;;;;13.75;13.50;;;;;;;;6491075;46;8843;-53
2023/07/07 23:13:33;;;;;;;;;13.75;13.00;;;;;;;;6491888;39;8849;-55
2023/07/07 23:19:36;;;;;;;;;16.25;14.00;;;;;;;;6491816;39;8893;-55
2023/07/07 23:25:38;;;;;;;;;13.50;13.00;;;;;;;;6490031;47;8880;-57
2023/07/07 23:31:41;;;;;;;;;14.00;14.00;;;;;;;;6491487;39;9539;-55
2023/07/07 23:37:49;;;;;;;;;12.25;11.75;;;;;;;;6489601;47;8943;-55
2023/07/07 23:43:53;;;;;;;;;14.00;13.75;;;;;;;;6490510;47;9005;-56
2023/07/07 23:49:57;;;;;;;;;11.50;11.25;;;;;;;;6489793;39;9028;-56
2023/07/07 23:56:01;;;;;;;;;12.00;12.00;;;;;;;;6490816;31;8880;-54
